sensor_id;sensor_type;location;lat;lon;timestamp;P1;durP1;ratioP1;P2;durP2;ratioP2
12925;SDS011;6529;50.566;9.774;2022-08-04T00:00:23;2.63;;;2.42;;
12925;SDS011;6529;50.566;9.774;2022-08-04T00:10:58;2.90;;;2.70;;
12925;SDS011;6529;50.566;9.774;2022-08-04T00:15:56;2.70;;;2.50;;
12925;SDS011;6529;50.566;9.774;2022-08-04T00:18:27;3.72;;;2.90;;
12925;SDS011;6529;50.566;9.774;2022-08-04T00:20:58;3.10;;;2.88;;
12925;SDS011;6529;50.566;9.774;2022-08-04T00:23:28;2.85;;;2.65;;
12925;SDS011;6529;50.566;9.774;2022-08-04T00:25:57;3.20;;;2.90;;
12925;SDS011;6529;50.566;9.774;2022-08-04T00:28:24;2.72;;;2.53;;
12925;SDS011;6529;50.566;9.774;2022-08-04T00:30:50;2.85;;;2.65;;
12925;SDS011;6529;50.566;9.774;2022-08-04T00:33:19;4.00;;;2.78;;
12925;SDS011;6529;50.566;9.774;2022-08-04T00:35:46;3.60;;;2.60;;
12925;SDS011;6529;50.566;9.774;2022-08-04T00:38:14;3.08;;;2.78;;
12925;SDS011;6529;50.566;9.774;2022-08-04T00:41:03;2.72;;;2.53;;
12925;SDS011;6529;50.566;9.774;2022-08-04T00:46:45;2.83;;;2.60;;
12925;SDS011;6529;50.566;9.774;2022-08-04T00:50:11;2.60;;;2.40;;
12925;SDS011;6529;50.566;9.774;2022-08-04T01:00:57;2.90;;;2.70;;
12925;SDS011;6529;50.566;9.774;2022-08-04T01:03:30;2.90;;;2.70;;
12925;SDS011;6529;50.566;9.774;2022-08-04T01:18:06;2.80;;;2.60;;
12925;SDS011;6529;50.566;9.774;2022-08-04T01:21:21;3.15;;;2.80;;
12925;SDS011;6529;50.566;9.774;2022-08-04T01:26:26;3.00;;;2.55;;
12925;SDS011;6529;50.566;9.774;2022-08-04T01:34:18;2.95;;;2.75;;
12925;SDS011;6529;50.566;9.774;2022-08-04T01:36:46;2.80;;;2.60;;
12925;SDS011;6529;50.566;9.774;2022-08-04T01:39:23;3.15;;;2.85;;
12925;SDS011;6529;50.566;9.774;2022-08-04T01:42:08;3.33;;;3.03;;
12925;SDS011;6529;50.566;9.774;2022-08-04T01:44:35;3.88;;;3.58;;
12925;SDS011;6529;50.566;9.774;2022-08-04T01:47:03;3.47;;;2.97;;
12925;SDS011;6529;50.566;9.774;2022-08-04T01:49:29;5.45;;;2.97;;
12925;SDS011;6529;50.566;9.774;2022-08-04T01:51:57;3.30;;;3.00;;
12925;SDS011;6529;50.566;9.774;2022-08-04T01:54:23;3.97;;;2.83;;
12925;SDS011;6529;50.566;9.774;2022-08-04T01:56:50;6.18;;;3.30;;
12925;SDS011;6529;50.566;9.774;2022-08-04T01:59:18;3.43;;;3.00;;
12925;SDS011;6529;50.566;9.774;2022-08-04T02:01:44;3.55;;;3.25;;
12925;SDS011;6529;50.566;9.774;2022-08-04T02:04:15;3.47;;;2.90;;
12925;SDS011;6529;50.566;9.774;2022-08-04T02:12:01;3.58;;;3.28;;
12925;SDS011;6529;50.566;9.774;2022-08-04T02:17:47;3.50;;;3.20;;
12925;SDS011;6529;50.566;9.774;2022-08-04T02:20:24;4.67;;;3.70;;
12925;SDS011;6529;50.566;9.774;2022-08-04T02:23:06;3.27;;;3.00;;
12925;SDS011;6529;50.566;9.774;2022-08-04T02:25:38;3.80;;;3.40;;
12925;SDS011;6529;50.566;9.774;2022-08-04T02:33:36;3.40;;;3.10;;
12925;SDS011;6529;50.566;9.774;2022-08-04T02:36:08;4.27;;;3.80;;
12925;SDS011;6529;50.566;9.774;2022-08-04T02:41:23;3.70;;;3.40;;
12925;SDS011;6529;50.566;9.774;2022-08-04T02:43:50;3.83;;;3.53;;
12925;SDS011;6529;50.566;9.774;2022-08-04T02:46:19;3.97;;;3.57;;
12925;SDS011;6529;50.566;9.774;2022-08-04T02:48:46;3.30;;;3.10;;
12925;SDS011;6529;50.566;9.774;2022-08-04T02:51:14;3.70;;;3.33;;
12925;SDS011;6529;50.566;9.774;2022-08-04T02:53:41;3.97;;;3.57;;
12925;SDS011;6529;50.566;9.774;2022-08-04T02:56:08;4.53;;;3.50;;
12925;SDS011;6529;50.566;9.774;2022-08-04T02:58:34;3.80;;;3.50;;
12925;SDS011;6529;50.566;9.774;2022-08-04T03:01:01;4.00;;;3.60;;
12925;SDS011;6529;50.566;9.774;2022-08-04T03:17:48;3.97;;;3.57;;
12925;SDS011;6529;50.566;9.774;2022-08-04T03:40:32;4.03;;;3.73;;
12925;SDS011;6529;50.566;9.774;2022-08-04T03:54:23;3.97;;;3.67;;
12925;SDS011;6529;50.566;9.774;2022-08-04T04:21:08;4.20;;;3.80;;
12925;SDS011;6529;50.566;9.774;2022-08-04T04:50:13;4.50;;;3.90;;
12925;SDS011;6529;50.566;9.774;2022-08-04T04:52:55;3.60;;;3.30;;
12925;SDS011;6529;50.566;9.774;2022-08-04T04:55:43;3.83;;;3.53;;
12925;SDS011;6529;50.566;9.774;2022-08-04T04:58:15;4.20;;;3.80;;
12925;SDS011;6529;50.566;9.774;2022-08-04T05:00:54;3.97;;;3.45;;
12925;SDS011;6529;50.566;9.774;2022-08-04T05:03:33;3.70;;;3.30;;
12925;SDS011;6529;50.566;9.774;2022-08-04T05:07:09;4.20;;;3.80;;
12925;SDS011;6529;50.566;9.774;2022-08-04T05:14:43;4.75;;;4.00;;
12925;SDS011;6529;50.566;9.774;2022-08-04T05:17:23;3.90;;;3.60;;
12925;SDS011;6529;50.566;9.774;2022-08-04T05:25:35;4.68;;;4.00;;
12925;SDS011;6529;50.566;9.774;2022-08-04T05:28:11;4.00;;;3.60;;
12925;SDS011;6529;50.566;9.774;2022-08-04T05:30:41;4.47;;;4.07;;
12925;SDS011;6529;50.566;9.774;2022-08-04T05:33:38;5.80;;;3.72;;
12925;SDS011;6529;50.566;9.774;2022-08-04T05:36:17;4.03;;;3.72;;
12925;SDS011;6529;50.566;9.774;2022-08-04T05:38:48;5.65;;;3.90;;
12925;SDS011;6529;50.566;9.774;2022-08-04T05:41:17;3.80;;;3.50;;
12925;SDS011;6529;50.566;9.774;2022-08-04T05:43:44;5.03;;;3.53;;
12925;SDS011;6529;50.566;9.774;2022-08-04T05:46:12;4.22;;;3.90;;
12925;SDS011;6529;50.566;9.774;2022-08-04T05:48:40;4.50;;;4.03;;
12925;SDS011;6529;50.566;9.774;2022-08-04T05:51:07;4.70;;;4.00;;
12925;SDS011;6529;50.566;9.774;2022-08-04T05:53:35;4.35;;;3.95;;
12925;SDS011;6529;50.566;9.774;2022-08-04T05:56:01;5.18;;;3.85;;
12925;SDS011;6529;50.566;9.774;2022-08-04T05:58:28;4.53;;;4.13;;
12925;SDS011;6529;50.566;9.774;2022-08-04T06:00:55;4.53;;;4.13;;
12925;SDS011;6529;50.566;9.774;2022-08-04T06:03:26;4.60;;;3.97;;
12925;SDS011;6529;50.566;9.774;2022-08-04T06:05:55;4.20;;;3.90;;
12925;SDS011;6529;50.566;9.774;2022-08-04T06:08:21;4.38;;;4.07;;
12925;SDS011;6529;50.566;9.774;2022-08-04T06:10:48;4.35;;;4.05;;
12925;SDS011;6529;50.566;9.774;2022-08-04T06:13:16;4.00;;;3.60;;
12925;SDS011;6529;50.566;9.774;2022-08-04T06:15:45;3.90;;;3.60;;
12925;SDS011;6529;50.566;9.774;2022-08-04T06:18:13;4.35;;;3.95;;
12925;SDS011;6529;50.566;9.774;2022-08-04T06:20:40;4.18;;;3.88;;
12925;SDS011;6529;50.566;9.774;2022-08-04T06:23:08;5.20;;;4.70;;
12925;SDS011;6529;50.566;9.774;2022-08-04T06:25:40;5.53;;;4.10;;
12925;SDS011;6529;50.566;9.774;2022-08-04T06:28:10;4.97;;;4.30;;
12925;SDS011;6529;50.566;9.774;2022-08-04T06:30:37;4.03;;;3.72;;
12925;SDS011;6529;50.566;9.774;2022-08-04T06:33:05;4.72;;;4.13;;
12925;SDS011;6529;50.566;9.774;2022-08-04T06:36:00;4.40;;;4.10;;
12925;SDS011;6529;50.566;9.774;2022-08-04T06:38:28;4.85;;;4.20;;
12925;SDS011;6529;50.566;9.774;2022-08-04T06:40:55;5.28;;;3.90;;
12925;SDS011;6529;50.566;9.774;2022-08-04T06:43:27;4.63;;;4.25;;
12925;SDS011;6529;50.566;9.774;2022-08-04T06:45:55;4.05;;;3.75;;
12925;SDS011;6529;50.566;9.774;2022-08-04T06:48:23;3.95;;;3.65;;
12925;SDS011;6529;50.566;9.774;2022-08-04T06:50:49;5.35;;;3.33;;
12925;SDS011;6529;50.566;9.774;2022-08-04T06:53:17;4.85;;;3.60;;
12925;SDS011;6529;50.566;9.774;2022-08-04T06:55:44;4.20;;;3.80;;
12925;SDS011;6529;50.566;9.774;2022-08-04T06:58:11;4.45;;;3.70;;
12925;SDS011;6529;50.566;9.774;2022-08-04T07:00:39;3.60;;;3.30;;
12925;SDS011;6529;50.566;9.774;2022-08-04T07:03:07;4.03;;;3.60;;
12925;SDS011;6529;50.566;9.774;2022-08-04T07:05:33;3.85;;;3.55;;
12925;SDS011;6529;50.566;9.774;2022-08-04T07:07:59;4.13;;;3.58;;
12925;SDS011;6529;50.566;9.774;2022-08-04T07:10:26;4.10;;;3.70;;
12925;SDS011;6529;50.566;9.774;2022-08-04T07:12:53;4.43;;;3.53;;
12925;SDS011;6529;50.566;9.774;2022-08-04T07:15:20;3.70;;;3.40;;
12925;SDS011;6529;50.566;9.774;2022-08-04T07:17:47;4.03;;;3.10;;
12925;SDS011;6529;50.566;9.774;2022-08-04T07:20:15;5.38;;;3.50;;
12925;SDS011;6529;50.566;9.774;2022-08-04T07:22:41;5.20;;;3.70;;
12925;SDS011;6529;50.566;9.774;2022-08-04T07:25:08;3.80;;;3.50;;
12925;SDS011;6529;50.566;9.774;2022-08-04T07:27:34;4.72;;;3.30;;
12925;SDS011;6529;50.566;9.774;2022-08-04T07:30:01;4.00;;;3.60;;
12925;SDS011;6529;50.566;9.774;2022-08-04T07:32:29;4.57;;;3.10;;
12925;SDS011;6529;50.566;9.774;2022-08-04T07:34:56;3.80;;;3.50;;
12925;SDS011;6529;50.566;9.774;2022-08-04T07:37:23;4.15;;;3.80;;
12925;SDS011;6529;50.566;9.774;2022-08-04T07:39:49;4.20;;;3.67;;
12925;SDS011;6529;50.566;9.774;2022-08-04T07:42:17;3.63;;;3.33;;
12925;SDS011;6529;50.566;9.774;2022-08-04T07:44:43;3.83;;;3.40;;
12925;SDS011;6529;50.566;9.774;2022-08-04T07:47:10;4.18;;;3.40;;
12925;SDS011;6529;50.566;9.774;2022-08-04T07:49:36;4.22;;;3.47;;
12925;SDS011;6529;50.566;9.774;2022-08-04T07:52:02;3.92;;;3.60;;
12925;SDS011;6529;50.566;9.774;2022-08-04T07:54:28;5.50;;;3.40;;
12925;SDS011;6529;50.566;9.774;2022-08-04T07:56:54;3.70;;;3.10;;
12925;SDS011;6529;50.566;9.774;2022-08-04T07:59:20;3.60;;;3.30;;
12925;SDS011;6529;50.566;9.774;2022-08-04T08:01:46;3.60;;;3.30;;
12925;SDS011;6529;50.566;9.774;2022-08-04T08:04:12;4.80;;;3.50;;
12925;SDS011;6529;50.566;9.774;2022-08-04T08:06:39;3.85;;;3.40;;
12925;SDS011;6529;50.566;9.774;2022-08-04T08:09:06;3.35;;;3.10;;
12925;SDS011;6529;50.566;9.774;2022-08-04T08:11:45;5.03;;;3.13;;
12925;SDS011;6529;50.566;9.774;2022-08-04T08:14:12;4.25;;;3.85;;
12925;SDS011;6529;50.566;9.774;2022-08-04T08:16:38;3.53;;;3.10;;
12925;SDS011;6529;50.566;9.774;2022-08-04T08:19:04;3.00;;;2.70;;
12925;SDS011;6529;50.566;9.774;2022-08-04T08:21:31;3.30;;;3.00;;
12925;SDS011;6529;50.566;9.774;2022-08-04T08:23:57;2.90;;;2.60;;
12925;SDS011;6529;50.566;9.774;2022-08-04T08:26:23;3.30;;;2.50;;
12925;SDS011;6529;50.566;9.774;2022-08-04T08:28:49;4.43;;;2.80;;
12925;SDS011;6529;50.566;9.774;2022-08-04T08:31:15;5.80;;;2.65;;
12925;SDS011;6529;50.566;9.774;2022-08-04T08:33:41;2.60;;;2.40;;
12925;SDS011;6529;50.566;9.774;2022-08-04T08:36:17;2.90;;;2.40;;
12925;SDS011;6529;50.566;9.774;2022-08-04T08:41:34;5.10;;;2.40;;
12925;SDS011;6529;50.566;9.774;2022-08-04T08:52:57;3.28;;;1.90;;
12925;SDS011;6529;50.566;9.774;2022-08-04T08:55:39;2.25;;;1.90;;
12925;SDS011;6529;50.566;9.774;2022-08-04T09:09:03;1.67;;;1.58;;
12925;SDS011;6529;50.566;9.774;2022-08-04T09:11:53;2.05;;;1.50;;
12925;SDS011;6529;50.566;9.774;2022-08-04T09:14:32;2.40;;;1.40;;
12925;SDS011;6529;50.566;9.774;2022-08-04T09:17:07;1.77;;;1.52;;
12925;SDS011;6529;50.566;9.774;2022-08-04T09:19:43;1.67;;;1.58;;
12925;SDS011;6529;50.566;9.774;2022-08-04T09:24:59;2.67;;;1.30;;
12925;SDS011;6529;50.566;9.774;2022-08-04T09:30:37;2.03;;;1.40;;
12925;SDS011;6529;50.566;9.774;2022-08-04T09:38:37;2.55;;;1.40;;
12925;SDS011;6529;50.566;9.774;2022-08-04T09:46:31;1.75;;;1.40;;
12925;SDS011;6529;50.566;9.774;2022-08-04T09:51:49;2.08;;;1.35;;
12925;SDS011;6529;50.566;9.774;2022-08-04T09:57:27;1.85;;;1.40;;
12925;SDS011;6529;50.566;9.774;2022-08-04T10:00:05;1.60;;;1.50;;
12925;SDS011;6529;50.566;9.774;2022-08-04T10:02:38;1.55;;;1.40;;
12925;SDS011;6529;50.566;9.774;2022-08-04T10:05:25;1.45;;;1.35;;
12925;SDS011;6529;50.566;9.774;2022-08-04T10:11:12;2.00;;;1.50;;
12925;SDS011;6529;50.566;9.774;2022-08-04T10:16:32;2.78;;;1.77;;
12925;SDS011;6529;50.566;9.774;2022-08-04T10:25:01;1.63;;;1.50;;
12925;SDS011;6529;50.566;9.774;2022-08-04T10:27:40;1.70;;;1.60;;
12925;SDS011;6529;50.566;9.774;2022-08-04T10:30:13;1.88;;;1.70;;
12925;SDS011;6529;50.566;9.774;2022-08-04T10:35:47;2.33;;;1.40;;
12925;SDS011;6529;50.566;9.774;2022-08-04T10:38:28;2.58;;;1.60;;
12925;SDS011;6529;50.566;9.774;2022-08-04T10:43:58;1.83;;;1.42;;
12925;SDS011;6529;50.566;9.774;2022-08-04T10:46:40;2.50;;;1.70;;
12925;SDS011;6529;50.566;9.774;2022-08-04T10:49:53;1.58;;;1.40;;
12925;SDS011;6529;50.566;9.774;2022-08-04T10:52:07;2.03;;;1.50;;
12925;SDS011;6529;50.566;9.774;2022-08-04T10:54:46;2.67;;;1.33;;
12925;SDS011;6529;50.566;9.774;2022-08-04T11:02:40;2.67;;;1.60;;
12925;SDS011;6529;50.566;9.774;2022-08-04T11:05:25;2.08;;;1.40;;
12925;SDS011;6529;50.566;9.774;2022-08-04T11:08:00;1.42;;;1.33;;
12925;SDS011;6529;50.566;9.774;2022-08-04T11:10:29;2.20;;;1.40;;
12925;SDS011;6529;50.566;9.774;2022-08-04T11:13:04;1.85;;;1.60;;
12925;SDS011;6529;50.566;9.774;2022-08-04T11:15:39;2.17;;;1.52;;
12925;SDS011;6529;50.566;9.774;2022-08-04T11:18:14;2.17;;;1.30;;
12925;SDS011;6529;50.566;9.774;2022-08-04T11:20:54;3.38;;;1.63;;
12925;SDS011;6529;50.566;9.774;2022-08-04T11:23:34;1.70;;;1.60;;
12925;SDS011;6529;50.566;9.774;2022-08-04T11:31:13;3.25;;;1.70;;
12925;SDS011;6529;50.566;9.774;2022-08-04T11:36:21;2.75;;;1.40;;
12925;SDS011;6529;50.566;9.774;2022-08-04T11:41:50;1.98;;;1.40;;
12925;SDS011;6529;50.566;9.774;2022-08-04T11:44:31;1.55;;;1.45;;
12925;SDS011;6529;50.566;9.774;2022-08-04T11:47:02;2.40;;;1.50;;
12925;SDS011;6529;50.566;9.774;2022-08-04T11:49:39;2.13;;;1.50;;
12925;SDS011;6529;50.566;9.774;2022-08-04T11:52:12;3.17;;;1.50;;
12925;SDS011;6529;50.566;9.774;2022-08-04T11:54:41;2.35;;;1.40;;
12925;SDS011;6529;50.566;9.774;2022-08-04T11:57:08;3.05;;;1.42;;
12925;SDS011;6529;50.566;9.774;2022-08-04T11:59:36;2.10;;;1.60;;
12925;SDS011;6529;50.566;9.774;2022-08-04T12:04:50;3.67;;;1.60;;
12925;SDS011;6529;50.566;9.774;2022-08-04T12:18:23;1.80;;;1.70;;
12925;SDS011;6529;50.566;9.774;2022-08-04T12:20:57;1.63;;;1.50;;
12925;SDS011;6529;50.566;9.774;2022-08-04T12:23:28;1.80;;;1.65;;
12925;SDS011;6529;50.566;9.774;2022-08-04T12:26:07;4.43;;;1.42;;
12925;SDS011;6529;50.566;9.774;2022-08-04T12:28:40;3.05;;;1.77;;
12925;SDS011;6529;50.566;9.774;2022-08-04T12:31:51;2.00;;;1.80;;
12925;SDS011;6529;50.566;9.774;2022-08-04T12:34:20;2.15;;;1.60;;
12925;SDS011;6529;50.566;9.774;2022-08-04T12:37:16;2.38;;;1.58;;
12925;SDS011;6529;50.566;9.774;2022-08-04T12:39:59;2.70;;;1.77;;
12925;SDS011;6529;50.566;9.774;2022-08-04T12:42:35;2.10;;;1.75;;
12925;SDS011;6529;50.566;9.774;2022-08-04T12:45:24;1.60;;;1.50;;
12925;SDS011;6529;50.566;9.774;2022-08-04T12:47:51;2.17;;;1.77;;
12925;SDS011;6529;50.566;9.774;2022-08-04T12:50:20;3.15;;;1.70;;
12925;SDS011;6529;50.566;9.774;2022-08-04T12:52:47;2.00;;;1.80;;
12925;SDS011;6529;50.566;9.774;2022-08-04T12:55:17;3.63;;;1.77;;
12925;SDS011;6529;50.566;9.774;2022-08-04T12:57:46;1.80;;;1.60;;
12925;SDS011;6529;50.566;9.774;2022-08-04T13:00:21;1.75;;;1.55;;
12925;SDS011;6529;50.566;9.774;2022-08-04T13:03:08;2.85;;;1.70;;
12925;SDS011;6529;50.566;9.774;2022-08-04T13:05:40;2.33;;;1.60;;
12925;SDS011;6529;50.566;9.774;2022-08-04T13:08:07;2.17;;;1.70;;
12925;SDS011;6529;50.566;9.774;2022-08-04T13:10:38;2.05;;;1.52;;
12925;SDS011;6529;50.566;9.774;2022-08-04T13:13:10;2.47;;;1.70;;
12925;SDS011;6529;50.566;9.774;2022-08-04T13:15:39;3.38;;;1.45;;
12925;SDS011;6529;50.566;9.774;2022-08-04T13:18:08;3.08;;;2.13;;
12925;SDS011;6529;50.566;9.774;2022-08-04T13:20:37;1.65;;;1.55;;
12925;SDS011;6529;50.566;9.774;2022-08-04T13:25:34;2.35;;;1.80;;
12925;SDS011;6529;50.566;9.774;2022-08-04T13:28:04;3.10;;;2.00;;
12925;SDS011;6529;50.566;9.774;2022-08-04T13:30:36;1.60;;;1.50;;
12925;SDS011;6529;50.566;9.774;2022-08-04T13:33:02;2.00;;;1.80;;
12925;SDS011;6529;50.566;9.774;2022-08-04T13:35:30;3.60;;;1.98;;
12925;SDS011;6529;50.566;9.774;2022-08-04T13:37:58;2.00;;;1.50;;
12925;SDS011;6529;50.566;9.774;2022-08-04T13:40:26;2.05;;;1.60;;
12925;SDS011;6529;50.566;9.774;2022-08-04T13:42:52;2.17;;;1.70;;
12925;SDS011;6529;50.566;9.774;2022-08-04T13:45:21;3.38;;;1.83;;
12925;SDS011;6529;50.566;9.774;2022-08-04T13:47:48;2.35;;;1.70;;
12925;SDS011;6529;50.566;9.774;2022-08-04T13:50:17;2.13;;;1.70;;
12925;SDS011;6529;50.566;9.774;2022-08-04T13:52:49;1.65;;;1.55;;
12925;SDS011;6529;50.566;9.774;2022-08-04T13:55:25;1.67;;;1.58;;
12925;SDS011;6529;50.566;9.774;2022-08-04T13:57:55;1.60;;;1.50;;
12925;SDS011;6529;50.566;9.774;2022-08-04T14:03:29;3.08;;;1.80;;
12925;SDS011;6529;50.566;9.774;2022-08-04T14:08:35;1.60;;;1.50;;
12925;SDS011;6529;50.566;9.774;2022-08-04T14:11:14;3.35;;;1.67;;
12925;SDS011;6529;50.566;9.774;2022-08-04T14:13:42;2.20;;;1.50;;
12925;SDS011;6529;50.566;9.774;2022-08-04T14:16:14;2.03;;;1.70;;
12925;SDS011;6529;50.566;9.774;2022-08-04T14:18:44;1.80;;;1.70;;
12925;SDS011;6529;50.566;9.774;2022-08-04T14:21:11;2.38;;;1.70;;
12925;SDS011;6529;50.566;9.774;2022-08-04T14:23:48;1.77;;;1.67;;
12925;SDS011;6529;50.566;9.774;2022-08-04T14:28:48;4.03;;;1.90;;
12925;SDS011;6529;50.566;9.774;2022-08-04T14:31:19;1.73;;;1.60;;
12925;SDS011;6529;50.566;9.774;2022-08-04T14:33:47;2.05;;;1.85;;
12925;SDS011;6529;50.566;9.774;2022-08-04T14:36:14;1.80;;;1.70;;
12925;SDS011;6529;50.566;9.774;2022-08-04T14:38:51;1.67;;;1.58;;
12925;SDS011;6529;50.566;9.774;2022-08-04T14:41:29;1.95;;;1.80;;
12925;SDS011;6529;50.566;9.774;2022-08-04T14:44:07;1.95;;;1.80;;
12925;SDS011;6529;50.566;9.774;2022-08-04T14:46:33;2.15;;;1.40;;
12925;SDS011;6529;50.566;9.774;2022-08-04T14:49:12;3.63;;;1.90;;
12925;SDS011;6529;50.566;9.774;2022-08-04T14:51:42;1.73;;;1.63;;
12925;SDS011;6529;50.566;9.774;2022-08-04T14:54:09;1.80;;;1.70;;
12925;SDS011;6529;50.566;9.774;2022-08-04T14:56:39;2.00;;;1.77;;
12925;SDS011;6529;50.566;9.774;2022-08-04T14:59:07;2.17;;;1.77;;
12925;SDS011;6529;50.566;9.774;2022-08-04T15:01:37;1.75;;;1.65;;
12925;SDS011;6529;50.566;9.774;2022-08-04T15:04:05;1.95;;;1.85;;
12925;SDS011;6529;50.566;9.774;2022-08-04T15:06:32;2.58;;;1.65;;
12925;SDS011;6529;50.566;9.774;2022-08-04T15:09:00;1.77;;;1.67;;
12925;SDS011;6529;50.566;9.774;2022-08-04T15:11:29;1.70;;;1.60;;
12925;SDS011;6529;50.566;9.774;2022-08-04T15:13:55;1.92;;;1.80;;
12925;SDS011;6529;50.566;9.774;2022-08-04T15:16:22;1.75;;;1.65;;
12925;SDS011;6529;50.566;9.774;2022-08-04T15:18:50;1.95;;;1.80;;
12925;SDS011;6529;50.566;9.774;2022-08-04T15:21:16;1.60;;;1.50;;
12925;SDS011;6529;50.566;9.774;2022-08-04T15:23:42;6.28;;;2.60;;
12925;SDS011;6529;50.566;9.774;2022-08-04T15:26:10;1.75;;;1.60;;
12925;SDS011;6529;50.566;9.774;2022-08-04T15:28:40;4.70;;;2.22;;
12925;SDS011;6529;50.566;9.774;2022-08-04T15:31:10;3.58;;;1.60;;
12925;SDS011;6529;50.566;9.774;2022-08-04T15:33:39;3.47;;;1.80;;
12925;SDS011;6529;50.566;9.774;2022-08-04T15:36:19;1.83;;;1.65;;
12925;SDS011;6529;50.566;9.774;2022-08-04T15:39:04;1.70;;;1.60;;
12925;SDS011;6529;50.566;9.774;2022-08-04T15:47:24;1.83;;;1.73;;
12925;SDS011;6529;50.566;9.774;2022-08-04T15:50:06;2.50;;;1.60;;
12925;SDS011;6529;50.566;9.774;2022-08-04T15:52:58;1.98;;;1.60;;
12925;SDS011;6529;50.566;9.774;2022-08-04T15:57:57;3.10;;;1.73;;
12925;SDS011;6529;50.566;9.774;2022-08-04T16:00:24;4.13;;;1.60;;
12925;SDS011;6529;50.566;9.774;2022-08-04T16:02:50;1.63;;;1.52;;
12925;SDS011;6529;50.566;9.774;2022-08-04T16:07:54;2.70;;;1.40;;
12925;SDS011;6529;50.566;9.774;2022-08-04T16:15:48;1.83;;;1.67;;
12925;SDS011;6529;50.566;9.774;2022-08-04T16:20:56;3.15;;;2.10;;
12925;SDS011;6529;50.566;9.774;2022-08-04T16:25:51;2.30;;;1.75;;
12925;SDS011;6529;50.566;9.774;2022-08-04T16:31:02;4.00;;;1.67;;
12925;SDS011;6529;50.566;9.774;2022-08-04T16:33:29;2.33;;;1.77;;
12925;SDS011;6529;50.566;9.774;2022-08-04T16:35:56;2.47;;;1.92;;
12925;SDS011;6529;50.566;9.774;2022-08-04T16:38:22;1.70;;;1.60;;
12925;SDS011;6529;50.566;9.774;2022-08-04T16:40:55;2.33;;;1.58;;
12925;SDS011;6529;50.566;9.774;2022-08-04T16:43:25;2.22;;;1.77;;
12925;SDS011;6529;50.566;9.774;2022-08-04T16:48:28;1.70;;;1.60;;
12925;SDS011;6529;50.566;9.774;2022-08-04T16:50:57;2.22;;;1.67;;
12925;SDS011;6529;50.566;9.774;2022-08-04T16:53:37;2.38;;;1.70;;
12925;SDS011;6529;50.566;9.774;2022-08-04T16:56:08;3.45;;;1.70;;
12925;SDS011;6529;50.566;9.774;2022-08-04T16:58:35;2.47;;;1.77;;
12925;SDS011;6529;50.566;9.774;2022-08-04T17:03:34;2.38;;;1.70;;
12925;SDS011;6529;50.566;9.774;2022-08-04T17:06:05;1.98;;;1.67;;
12925;SDS011;6529;50.566;9.774;2022-08-04T17:08:41;1.80;;;1.70;;
12925;SDS011;6529;50.566;9.774;2022-08-04T17:11:08;2.70;;;1.70;;
12925;SDS011;6529;50.566;9.774;2022-08-04T17:16:06;2.33;;;1.60;;
12925;SDS011;6529;50.566;9.774;2022-08-04T17:18:35;6.00;;;1.85;;
12925;SDS011;6529;50.566;9.774;2022-08-04T17:21:04;2.65;;;1.80;;
12925;SDS011;6529;50.566;9.774;2022-08-04T17:23:37;2.35;;;1.70;;
12925;SDS011;6529;50.566;9.774;2022-08-04T17:26:15;3.38;;;1.73;;
12925;SDS011;6529;50.566;9.774;2022-08-04T17:28:44;3.50;;;1.95;;
12925;SDS011;6529;50.566;9.774;2022-08-04T17:31:11;3.03;;;1.80;;
12925;SDS011;6529;50.566;9.774;2022-08-04T17:33:38;2.13;;;1.80;;
12925;SDS011;6529;50.566;9.774;2022-08-04T17:36:07;10.82;;;2.55;;
12925;SDS011;6529;50.566;9.774;2022-08-04T17:41:09;4.90;;;2.17;;
12925;SDS011;6529;50.566;9.774;2022-08-04T17:43:38;1.90;;;1.80;;
12925;SDS011;6529;50.566;9.774;2022-08-04T17:46:27;2.65;;;1.80;;
12925;SDS011;6529;50.566;9.774;2022-08-04T17:51:37;2.53;;;1.85;;
12925;SDS011;6529;50.566;9.774;2022-08-04T17:54:03;2.13;;;1.92;;
12925;SDS011;6529;50.566;9.774;2022-08-04T17:56:33;2.65;;;1.90;;
12925;SDS011;6529;50.566;9.774;2022-08-04T17:59:09;2.05;;;1.83;;
12925;SDS011;6529;50.566;9.774;2022-08-04T18:01:44;1.77;;;1.67;;
12925;SDS011;6529;50.566;9.774;2022-08-04T18:06:57;5.53;;;2.08;;
12925;SDS011;6529;50.566;9.774;2022-08-04T18:09:31;3.00;;;1.90;;
12925;SDS011;6529;50.566;9.774;2022-08-04T18:12:30;3.72;;;1.83;;
12925;SDS011;6529;50.566;9.774;2022-08-04T18:14:57;3.97;;;1.83;;
12925;SDS011;6529;50.566;9.774;2022-08-04T18:19:56;2.60;;;2.00;;
12925;SDS011;6529;50.566;9.774;2022-08-04T18:22:23;2.38;;;1.80;;
12925;SDS011;6529;50.566;9.774;2022-08-04T18:24:49;5.43;;;1.95;;
12925;SDS011;6529;50.566;9.774;2022-08-04T18:27:15;3.35;;;2.00;;
12925;SDS011;6529;50.566;9.774;2022-08-04T18:29:42;4.78;;;2.10;;
12925;SDS011;6529;50.566;9.774;2022-08-04T18:32:08;6.30;;;1.90;;
12925;SDS011;6529;50.566;9.774;2022-08-04T18:34:34;2.17;;;1.75;;
12925;SDS011;6529;50.566;9.774;2022-08-04T18:37:01;2.17;;;1.92;;
12925;SDS011;6529;50.566;9.774;2022-08-04T18:39:27;2.10;;;1.90;;
12925;SDS011;6529;50.566;9.774;2022-08-04T18:41:54;2.50;;;1.83;;
12925;SDS011;6529;50.566;9.774;2022-08-04T18:44:21;2.78;;;2.00;;
12925;SDS011;6529;50.566;9.774;2022-08-04T18:46:47;2.53;;;2.00;;
12925;SDS011;6529;50.566;9.774;2022-08-04T18:49:12;3.03;;;2.13;;
12925;SDS011;6529;50.566;9.774;2022-08-04T18:51:38;1.95;;;1.75;;
12925;SDS011;6529;50.566;9.774;2022-08-04T18:54:04;1.85;;;1.75;;
12925;SDS011;6529;50.566;9.774;2022-08-04T18:56:31;2.13;;;2.00;;
12925;SDS011;6529;50.566;9.774;2022-08-04T18:59:00;4.18;;;1.88;;
12925;SDS011;6529;50.566;9.774;2022-08-04T19:01:27;2.20;;;2.00;;
12925;SDS011;6529;50.566;9.774;2022-08-04T19:03:53;3.92;;;2.10;;
12925;SDS011;6529;50.566;9.774;2022-08-04T19:06:18;2.80;;;2.08;;
12925;SDS011;6529;50.566;9.774;2022-08-04T19:08:44;2.00;;;1.80;;
12925;SDS011;6529;50.566;9.774;2022-08-04T19:11:10;2.00;;;1.90;;
12925;SDS011;6529;50.566;9.774;2022-08-04T19:13:37;5.10;;;2.17;;
12925;SDS011;6529;50.566;9.774;2022-08-04T19:16:03;3.83;;;1.77;;
12925;SDS011;6529;50.566;9.774;2022-08-04T19:18:28;2.35;;;1.95;;
12925;SDS011;6529;50.566;9.774;2022-08-04T19:20:56;4.40;;;2.00;;
12925;SDS011;6529;50.566;9.774;2022-08-04T19:23:22;2.25;;;2.00;;
12925;SDS011;6529;50.566;9.774;2022-08-04T19:25:48;4.78;;;2.13;;
12925;SDS011;6529;50.566;9.774;2022-08-04T19:28:14;1.92;;;1.80;;
12925;SDS011;6529;50.566;9.774;2022-08-04T19:30:40;2.53;;;1.90;;
12925;SDS011;6529;50.566;9.774;2022-08-04T19:33:06;4.40;;;2.13;;
12925;SDS011;6529;50.566;9.774;2022-08-04T19:35:31;2.20;;;1.90;;
12925;SDS011;6529;50.566;9.774;2022-08-04T19:37:57;4.55;;;2.10;;
12925;SDS011;6529;50.566;9.774;2022-08-04T19:40:22;2.25;;;2.05;;
12925;SDS011;6529;50.566;9.774;2022-08-04T19:42:49;2.30;;;2.10;;
12925;SDS011;6529;50.566;9.774;2022-08-04T19:45:15;1.98;;;1.88;;
12925;SDS011;6529;50.566;9.774;2022-08-04T19:47:41;2.88;;;1.90;;
12925;SDS011;6529;50.566;9.774;2022-08-04T19:50:07;3.10;;;1.75;;
12925;SDS011;6529;50.566;9.774;2022-08-04T19:52:33;3.38;;;2.20;;
12925;SDS011;6529;50.566;9.774;2022-08-04T19:54:59;3.45;;;2.03;;
12925;SDS011;6529;50.566;9.774;2022-08-04T19:57:24;1.92;;;1.73;;
12925;SDS011;6529;50.566;9.774;2022-08-04T19:59:50;2.67;;;2.00;;
12925;SDS011;6529;50.566;9.774;2022-08-04T20:02:15;2.25;;;2.05;;
12925;SDS011;6529;50.566;9.774;2022-08-04T20:04:41;2.47;;;2.10;;
12925;SDS011;6529;50.566;9.774;2022-08-04T20:07:07;2.60;;;2.30;;
12925;SDS011;6529;50.566;9.774;2022-08-04T20:09:32;3.70;;;2.50;;
12925;SDS011;6529;50.566;9.774;2022-08-04T20:11:58;3.65;;;2.58;;
12925;SDS011;6529;50.566;9.774;2022-08-04T20:14:24;3.17;;;2.33;;
12925;SDS011;6529;50.566;9.774;2022-08-04T20:16:52;3.35;;;2.50;;
12925;SDS011;6529;50.566;9.774;2022-08-04T20:19:17;4.78;;;2.63;;
12925;SDS011;6529;50.566;9.774;2022-08-04T20:21:43;3.00;;;2.10;;
12925;SDS011;6529;50.566;9.774;2022-08-04T20:24:09;2.72;;;2.10;;
12925;SDS011;6529;50.566;9.774;2022-08-04T20:26:34;3.45;;;2.30;;
12925;SDS011;6529;50.566;9.774;2022-08-04T20:29:00;3.20;;;2.38;;
12925;SDS011;6529;50.566;9.774;2022-08-04T20:31:26;2.67;;;2.30;;
12925;SDS011;6529;50.566;9.774;2022-08-04T20:33:51;5.03;;;2.40;;